PWSweather.com
Personal Weather Stations
Station Observations
GIRWX1
Presovsky Kraj, GiraltovceSK

Presovsky KrajGiraltovceSK

Lat: 49.118, Lon: 21.52

Elevation: 630

Station Type: wh1080

http://www.meteogiraltovce.wz.cz/

High Low Average
Temperature 54.4°F12.4°C 39.9°F4.4°C 48.8°F9.3°C
Dew Point 50.5°F10.3°C 36.1°F2.3°C 43.2°F6.2°C
Winds 9.5 mph 15.3 kmh Calm Calm 2.0 mph SSE3.2 kmh SSE
Wind Gusts 14.5 mph23.3 kmh -- 4.0 mph6.4 kmh
Humidity 87% 70% 81%
Pressure 29.80 in1009.1 mb 29.41 in995.9 mb -
Precipitation 0.48 in12.2 mm - -
Hour Temp Dew Point Humidity Winds Wind Gusts Pressure Precip Precip Rate Daily Precip Total
12:00 AM 54.4°F12.4°C 50.3°F10.2°C 86% 5.1 mph SSE8.2 kmh SSE 8.3 mph13.4 kmh 29.46 in997.6 mb 0.06 in1.5 mm 0.00 in0.0 mm 0.01 in0.3 mm
12:05 AM 54.3°F12.4°C 50.2°F10.1°C 86% 3.8 mph S6.1 kmh S 5.4 mph8.7 kmh 29.46 in997.6 mb 0.06 in1.5 mm 0.00 in0.0 mm 0.01 in0.3 mm
12:10 AM 54.3°F12.4°C 50.2°F10.1°C 86% 5.8 mph SSE9.3 kmh SSE 10.7 mph17.2 kmh 29.46 in997.6 mb 0.08 in2.0 mm 0.24 in6.1 mm 0.02 in0.5 mm
12:15 AM 54.3°F12.4°C 50.3°F10.2°C 86% 5.4 mph S8.7 kmh S 7.6 mph12.2 kmh 29.46 in997.6 mb 0.09 in2.3 mm 0.12 in3.0 mm 0.04 in1.0 mm
12:20 AM 54.3°F12.4°C 50.5°F10.3°C 87% 5.8 mph S9.3 kmh S 9.2 mph14.8 kmh 29.45 in997.3 mb 0.10 in2.5 mm 0.12 in3.0 mm 0.05 in1.3 mm
12:25 AM 54.3°F12.4°C 50.5°F10.3°C 87% 6.7 mph S10.8 kmh S 10.7 mph17.2 kmh 29.45 in997.3 mb 0.11 in2.8 mm 0.12 in3.0 mm 0.05 in1.3 mm
12:30 AM 54.1°F12.3°C 50.4°F10.2°C 87% 6.5 mph SE10.5 kmh SE 9.2 mph14.8 kmh 29.45 in997.3 mb 0.11 in2.8 mm 0.00 in0.0 mm 0.06 in1.5 mm
12:35 AM 54.1°F12.3°C 50.4°F10.2°C 87% 6.2 mph S10.0 kmh S 9.2 mph14.8 kmh 29.45 in997.3 mb 0.11 in2.8 mm 0.00 in0.0 mm 0.07 in1.8 mm
12:40 AM 54.1°F12.3°C 50.4°F10.2°C 87% 5.4 mph S8.7 kmh S 7.6 mph12.2 kmh 29.45 in997.3 mb 0.11 in2.8 mm 0.00 in0.0 mm 0.07 in1.8 mm
12:45 AM 54.3°F12.4°C 50.5°F10.3°C 87% 3.7 mph S6.0 kmh S 6.0 mph9.7 kmh 29.44 in997.0 mb 0.10 in2.5 mm 0.00 in0.0 mm 0.08 in2.0 mm
12:50 AM 54.3°F12.4°C 50.5°F10.3°C 87% 2.8 mph ESE4.5 kmh ESE 4.5 mph7.2 kmh 29.43 in996.6 mb 0.09 in2.3 mm 0.00 in0.0 mm 0.08 in2.0 mm
12:55 AM 54.3°F12.4°C 50.5°F10.3°C 87% 2.4 mph NE3.9 kmh NE 4.5 mph7.2 kmh 29.43 in996.6 mb 0.08 in2.0 mm 0.00 in0.0 mm 0.08 in2.0 mm
01:00 AM 54.3°F12.4°C 50.5°F10.3°C 87% 2.6 mph SE4.2 kmh SE 4.5 mph7.2 kmh 29.44 in997.0 mb 0.07 in1.8 mm 0.00 in0.0 mm 0.09 in2.3 mm
01:05 AM 54.3°F12.4°C 50.5°F10.3°C 87% 1.6 mph SSW2.6 kmh SSW 2.2 mph3.5 kmh 29.44 in997.0 mb 0.08 in2.0 mm 0.12 in3.0 mm 0.09 in2.3 mm
01:10 AM 54.2°F12.3°C 50.4°F10.2°C 87% 1.9 mph SSE3.1 kmh SSE 3.8 mph6.1 kmh 29.44 in997.0 mb 0.06 in1.5 mm 0.00 in0.0 mm 0.09 in2.3 mm
01:15 AM 54.1°F12.3°C 50.4°F10.2°C 87% 1.5 mph SE2.4 kmh SE 3.1 mph5.0 kmh 29.44 in997.0 mb 0.06 in1.5 mm 0.00 in0.0 mm 0.09 in2.3 mm
01:20 AM 54.1°F12.3°C 50.4°F10.2°C 87% 0.7 mph NE1.1 kmh NE 2.2 mph3.5 kmh 29.45 in997.3 mb 0.05 in1.3 mm 0.00 in0.0 mm 0.10 in2.5 mm
01:25 AM 54.1°F12.3°C 50.4°F10.2°C 87% 0.7 mph SW1.1 kmh SW 3.1 mph5.0 kmh 29.45 in997.3 mb 0.05 in1.3 mm 0.00 in0.0 mm 0.10 in2.5 mm
01:30 AM 54.1°F12.3°C 50.1°F10.1°C 86% 4.3 mph S6.9 kmh S 9.8 mph15.8 kmh 29.45 in997.3 mb 0.04 in1.0 mm 0.00 in0.0 mm 0.10 in2.5 mm
01:35 AM 54.1°F12.3°C 50.3°F10.2°C 87% 7.2 mph SSW11.6 kmh SSW 11.4 mph18.3 kmh 29.45 in997.3 mb 0.04 in1.0 mm 0.00 in0.0 mm 0.11 in2.8 mm
01:40 AM 54.1°F12.3°C 50.4°F10.2°C 87% 8.2 mph SSW13.2 kmh SSW 11.4 mph18.3 kmh 29.44 in997.0 mb 0.03 in0.8 mm 0.00 in0.0 mm 0.11 in2.8 mm
01:45 AM 54.1°F12.3°C 50.4°F10.2°C 87% 4.0 mph S6.4 kmh S 6.0 mph9.7 kmh 29.43 in996.6 mb 0.03 in0.8 mm 0.00 in0.0 mm 0.11 in2.8 mm
01:50 AM 54.3°F12.4°C 50.5°F10.3°C 87% 3.5 mph WSW5.6 kmh WSW 6.0 mph9.7 kmh 29.44 in997.0 mb 0.03 in0.8 mm 0.00 in0.0 mm 0.11 in2.8 mm
01:55 AM 54.3°F12.4°C 50.5°F10.3°C 87% 4.5 mph SSW7.2 kmh SSW 7.6 mph12.2 kmh 29.44 in997.0 mb 0.03 in0.8 mm 0.00 in0.0 mm 0.11 in2.8 mm
02:00 AM 54.3°F12.4°C 50.5°F10.3°C 87% 5.1 mph SSE8.2 kmh SSE 6.9 mph11.1 kmh 29.43 in996.6 mb 0.03 in0.8 mm 0.00 in0.0 mm 0.11 in2.8 mm
02:05 AM 54.3°F12.4°C 50.5°F10.3°C 87% 4.5 mph S7.2 kmh S 6.0 mph9.7 kmh 29.44 in997.0 mb 0.02 in0.5 mm 0.00 in0.0 mm 0.11 in2.8 mm
02:10 AM 54.3°F12.4°C 50.5°F10.3°C 87% 3.1 mph SSW5.0 kmh SSW 6.0 mph9.7 kmh 29.43 in996.6 mb 0.02 in0.5 mm 0.00 in0.0 mm 0.11 in2.8 mm
02:15 AM 54.3°F12.4°C 50.4°F10.2°C 87% 1.2 mph NE1.9 kmh NE 4.5 mph7.2 kmh 29.43 in996.6 mb 0.02 in0.5 mm 0.00 in0.0 mm 0.12 in3.0 mm
02:20 AM 54.3°F12.4°C 50.2°F10.1°C 86% 2.3 mph N3.7 kmh N 6.9 mph11.1 kmh 29.43 in996.6 mb 0.02 in0.5 mm 0.00 in0.0 mm 0.12 in3.0 mm
02:25 AM 54.3°F12.4°C 50.2°F10.1°C 86% 5.3 mph NNE8.5 kmh NNE 6.9 mph11.1 kmh 29.42 in996.3 mb 0.01 in0.3 mm 0.00 in0.0 mm 0.12 in3.0 mm
02:30 AM 54.1°F12.3°C 50.0°F10.0°C 86% 1.2 mph SW1.9 kmh SW 5.4 mph8.7 kmh 29.43 in996.6 mb 0.01 in0.3 mm 0.00 in0.0 mm 0.12 in3.0 mm
02:35 AM 54.1°F12.3°C 50.0°F10.0°C 86% 5.1 mph SW8.2 kmh SW 8.3 mph13.4 kmh 29.43 in996.6 mb 0.01 in0.3 mm 0.00 in0.0 mm 0.12 in3.0 mm
02:40 AM 54.1°F12.3°C 50.0°F10.0°C 86% 6.2 mph SW10.0 kmh SW 9.2 mph14.8 kmh 29.43 in996.6 mb 0.01 in0.3 mm 0.00 in0.0 mm 0.12 in3.0 mm
02:45 AM 54.1°F12.3°C 50.0°F10.0°C 86% 3.8 mph SW6.1 kmh SW 5.4 mph8.7 kmh 29.43 in996.6 mb 0.01 in0.3 mm 0.00 in0.0 mm 0.12 in3.0 mm
02:50 AM 54.1°F12.3°C 50.0°F10.0°C 86% 2.0 mph SE3.2 kmh SE 4.5 mph7.2 kmh 29.42 in996.3 mb 0.00 in0.0 mm 0.00 in0.0 mm 0.12 in3.0 mm
02:55 AM 54.1°F12.3°C 50.2°F10.1°C 86% 2.0 mph SSW3.2 kmh SSW 4.5 mph7.2 kmh 29.43 in996.6 mb 0.00 in0.0 mm 0.00 in0.0 mm 0.12 in3.0 mm
03:00 AM 54.1°F12.3°C 50.4°F10.2°C 87% 1.0 mph WSW1.6 kmh WSW 3.1 mph5.0 kmh 29.43 in996.6 mb 0.00 in0.0 mm 0.00 in0.0 mm 0.12 in3.0 mm
03:05 AM 54.1°F12.3°C 50.2°F10.1°C 86% 2.2 mph E3.5 kmh E 4.5 mph7.2 kmh 29.41 in995.9 mb 0.00 in0.0 mm 0.00 in0.0 mm 0.12 in3.0 mm
03:10 AM 54.1°F12.3°C 50.0°F10.0°C 86% 2.1 mph SW3.4 kmh SW 4.5 mph7.2 kmh 29.42 in996.3 mb 0.00 in0.0 mm 0.00 in0.0 mm 0.12 in3.0 mm
03:15 AM 54.1°F12.3°C 50.0°F10.0°C 86% 3.4 mph SW5.5 kmh SW 6.9 mph11.1 kmh 29.44 in997.0 mb 0.00 in0.0 mm 0.00 in0.0 mm 0.12 in3.0 mm
03:20 AM 54.1°F12.3°C 50.0°F10.0°C 86% 6.2 mph SW10.0 kmh SW 9.2 mph14.8 kmh 29.45 in997.3 mb 0.00 in0.0 mm 0.00 in0.0 mm 0.12 in3.0 mm
03:25 AM 54.1°F12.3°C 50.4°F10.2°C 87% 6.6 mph SW10.6 kmh SW 9.8 mph15.8 kmh 29.46 in997.6 mb 0.00 in0.0 mm 0.00 in0.0 mm 0.12 in3.0 mm
03:30 AM 54.1°F12.3°C 50.4°F10.2°C 87% 4.5 mph W7.2 kmh W 6.9 mph11.1 kmh 29.47 in998.0 mb 0.00 in0.0 mm 0.00 in0.0 mm 0.12 in3.0 mm
03:35 AM 54.1°F12.3°C 50.2°F10.1°C 87% 8.0 mph WNW12.9 kmh WNW 14.5 mph23.3 kmh 29.47 in998.0 mb 0.00 in0.0 mm 0.00 in0.0 mm 0.12 in3.0 mm
03:40 AM 53.8°F12.1°C 49.7°F9.8°C 86% 8.1 mph NW13.0 kmh NW 12.1 mph19.5 kmh 29.47 in998.0 mb 0.00 in0.0 mm 0.00 in0.0 mm 0.12 in3.0 mm
03:45 AM 53.0°F11.7°C 48.5°F9.2°C 85% 5.0 mph E8.0 kmh E 9.2 mph14.8 kmh 29.47 in998.0 mb 0.01 in0.3 mm 0.12 in3.0 mm 0.13 in3.3 mm
03:50 AM 52.4°F11.3°C 47.6°F8.7°C 84% 3.0 mph NW4.8 kmh NW 4.5 mph7.2 kmh 29.48 in998.3 mb 0.03 in0.8 mm 0.24 in6.1 mm 0.15 in3.8 mm
03:55 AM 51.9°F11.1°C 46.9°F8.3°C 83% 4.5 mph N7.2 kmh N 7.6 mph12.2 kmh 29.48 in998.3 mb 0.04 in1.0 mm 0.12 in3.0 mm 0.16 in4.1 mm
04:00 AM 51.4°F10.8°C 46.3°F7.9°C 83% 1.4 mph ENE2.3 kmh ENE 3.1 mph5.0 kmh 29.48 in998.3 mb 0.05 in1.3 mm 0.01 in0.3 mm 0.17 in4.3 mm
04:05 AM 51.3°F10.7°C 46.0°F7.8°C 82% 3.1 mph E5.0 kmh E 3.8 mph6.1 kmh 29.48 in998.3 mb 0.05 in1.3 mm 0.00 in0.0 mm 0.17 in4.3 mm
04:10 AM 51.0°F10.6°C 45.7°F7.6°C 82% 1.9 mph ENE3.1 kmh ENE 3.8 mph6.1 kmh 29.47 in998.0 mb 0.06 in1.5 mm 0.12 in3.0 mm 0.18 in4.6 mm
04:15 AM 50.6°F10.3°C 45.3°F7.4°C 82% 1.3 mph NW2.1 kmh NW 3.1 mph5.0 kmh 29.48 in998.3 mb 0.06 in1.5 mm 0.00 in0.0 mm 0.18 in4.6 mm
04:20 AM 50.4°F10.2°C 45.3°F7.4°C 82% 2.9 mph WNW4.7 kmh WNW 4.5 mph7.2 kmh 29.48 in998.3 mb 0.06 in1.5 mm 0.00 in0.0 mm 0.18 in4.6 mm
04:25 AM 50.2°F10.1°C 45.3°F7.4°C 83% 2.1 mph WNW3.4 kmh WNW 3.8 mph6.1 kmh 29.48 in998.3 mb 0.06 in1.5 mm 0.00 in0.0 mm 0.18 in4.6 mm
04:30 AM 50.2°F10.1°C 45.2°F7.3°C 83% 0.2 mph NW0.3 kmh NW 0.7 mph1.1 kmh 29.48 in998.3 mb 0.06 in1.5 mm 0.00 in0.0 mm 0.18 in4.6 mm
04:35 AM 50.0°F10.0°C 45.0°F7.2°C 83% 0.5 mph ESE0.8 kmh ESE 2.2 mph3.5 kmh 29.48 in998.3 mb 0.06 in1.5 mm 0.00 in0.0 mm 0.18 in4.6 mm
04:40 AM 49.9°F9.9°C 45.0°F7.2°C 83% 0.4 mph NW0.6 kmh NW 1.6 mph2.6 kmh 29.48 in998.3 mb 0.06 in1.5 mm 0.00 in0.0 mm 0.18 in4.6 mm
04:45 AM 49.8°F9.9°C 44.9°F7.2°C 83% 0.3 mph W0.5 kmh W 1.6 mph2.6 kmh 29.49 in998.6 mb 0.05 in1.3 mm 0.00 in0.0 mm 0.18 in4.6 mm
04:50 AM 49.8°F9.9°C 44.8°F7.1°C 83% 0.8 mph W1.3 kmh W 2.2 mph3.5 kmh 29.48 in998.3 mb 0.04 in1.0 mm 0.00 in0.0 mm 0.18 in4.6 mm
04:55 AM 49.6°F9.8°C 44.7°F7.1°C 83% 1.4 mph W2.3 kmh W 2.2 mph3.5 kmh 29.48 in998.3 mb 0.02 in0.5 mm 0.00 in0.0 mm 0.18 in4.6 mm
05:00 AM 49.6°F9.8°C 44.7°F7.1°C 83% 1.9 mph NNW3.1 kmh NNW 3.1 mph5.0 kmh 29.48 in998.3 mb 0.01 in0.3 mm 0.00 in0.0 mm 0.18 in4.6 mm
05:05 AM 49.6°F9.8°C 45.0°F7.2°C 84% 2.3 mph NNW3.7 kmh NNW 3.8 mph6.1 kmh 29.48 in998.3 mb 0.01 in0.3 mm 0.00 in0.0 mm 0.18 in4.6 mm
05:10 AM 49.5°F9.7°C 44.8°F7.1°C 84% 1.2 mph NNE1.9 kmh NNE 2.2 mph3.5 kmh 29.48 in998.3 mb 0.00 in0.0 mm 0.00 in0.0 mm 0.18 in4.6 mm
05:15 AM 49.5°F9.7°C 44.8°F7.1°C 84% 1.0 mph NE1.6 kmh NE 2.2 mph3.5 kmh 29.47 in998.0 mb 0.00 in0.0 mm 0.00 in0.0 mm 0.18 in4.6 mm
05:20 AM 49.5°F9.7°C 44.8°F7.1°C 84% 0.5 mph WNW0.8 kmh WNW 1.6 mph2.6 kmh 29.47 in998.0 mb 0.00 in0.0 mm 0.00 in0.0 mm 0.18 in4.6 mm
05:25 AM 49.5°F9.7°C 44.8°F7.1°C 84% 0.3 mph W0.5 kmh W 1.6 mph2.6 kmh 29.47 in998.0 mb 0.00 in0.0 mm 0.00 in0.0 mm 0.18 in4.6 mm
05:30 AM 49.5°F9.7°C 44.8°F7.1°C 84% 0.9 mph NNW1.4 kmh NNW 2.2 mph3.5 kmh 29.47 in998.0 mb 0.00 in0.0 mm 0.00 in0.0 mm 0.18 in4.6 mm
05:35 AM 49.5°F9.7°C 44.8°F7.1°C 84% 0.5 mph NNW0.8 kmh NNW 1.6 mph2.6 kmh 29.47 in998.0 mb 0.00 in0.0 mm 0.00 in0.0 mm 0.18 in4.6 mm
05:40 AM 49.3°F9.6°C 44.7°F7.1°C 84% 0.6 mph W1.0 kmh W 1.6 mph2.6 kmh 29.48 in998.3 mb 0.00 in0.0 mm 0.00 in0.0 mm 0.18 in4.6 mm
05:45 AM 49.3°F9.6°C 44.7°F7.1°C 84% Calm Calm 0.7 mph1.1 kmh 29.48 in998.3 mb 0.00 in0.0 mm 0.00 in0.0 mm 0.18 in4.6 mm
05:50 AM 49.3°F9.6°C 45.0°F7.2°C 85% 0.3 mph W0.5 kmh W 1.6 mph2.6 kmh 29.48 in998.3 mb 0.00 in0.0 mm 0.00 in0.0 mm 0.18 in4.6 mm
05:55 AM 49.3°F9.6°C 45.0°F7.2°C 85% 0.2 mph W0.3 kmh W 0.7 mph1.1 kmh 29.49 in998.6 mb 0.00 in0.0 mm 0.00 in0.0 mm 0.18 in4.6 mm
06:00 AM 49.3°F9.6°C 45.0°F7.2°C 85% 1.1 mph NNW1.8 kmh NNW 3.8 mph6.1 kmh 29.49 in998.6 mb 0.00 in0.0 mm 0.00 in0.0 mm 0.18 in4.6 mm
06:05 AM 49.3°F9.6°C 45.0°F7.2°C 85% 3.1 mph 5.0 kmh 3.8 mph6.1 kmh 29.48 in998.3 mb 0.00 in0.0 mm 0.00 in0.0 mm 0.18 in4.6 mm
06:10 AM 49.2°F9.6°C 44.9°F7.2°C 85% 2.2 mph N3.5 kmh N 3.8 mph6.1 kmh 29.49 in998.6 mb 0.00 in0.0 mm 0.00 in0.0 mm 0.18 in4.6 mm
06:15 AM 49.1°F9.5°C 44.8°F7.1°C 85% 1.7 mph NNE2.7 kmh NNE 3.1 mph5.0 kmh 29.49 in998.6 mb 0.01 in0.3 mm 0.12 in3.0 mm 0.19 in4.8 mm
06:20 AM 49.1°F9.5°C 44.8°F7.1°C 85% 1.2 mph NNE1.9 kmh NNE 2.2 mph3.5 kmh 29.49 in998.6 mb 0.01 in0.3 mm 0.00 in0.0 mm 0.19 in4.8 mm
06:25 AM 49.1°F9.5°C 44.8°F7.1°C 85% 1.9 mph NE3.1 kmh NE 3.1 mph5.0 kmh 29.50 in999.0 mb 0.01 in0.3 mm 0.00 in0.0 mm 0.19 in4.8 mm
06:30 AM 49.1°F9.5°C 44.8°F7.1°C 85% 0.4 mph E0.6 kmh E 1.6 mph2.6 kmh 29.50 in999.0 mb 0.01 in0.3 mm 0.00 in0.0 mm 0.20 in5.1 mm
06:35 AM 49.1°F9.5°C 44.8°F7.1°C 85% 0.8 mph WNW1.3 kmh WNW 1.6 mph2.6 kmh 29.51 in999.3 mb 0.02 in0.5 mm 0.12 in3.0 mm 0.20 in5.1 mm
06:40 AM 49.1°F9.5°C 44.8°F7.1°C 85% 0.4 mph W0.6 kmh W 1.6 mph2.6 kmh 29.52 in999.7 mb 0.03 in0.8 mm 0.12 in3.0 mm 0.21 in5.3 mm
06:45 AM 49.0°F9.4°C 44.7°F7.1°C 85% 0.7 mph W1.1 kmh W 1.6 mph2.6 kmh 29.52 in999.7 mb 0.04 in1.0 mm 0.12 in3.0 mm 0.22 in5.6 mm
06:50 AM 48.9°F9.4°C 44.6°F7.0°C 85% 1.1 mph W1.8 kmh W 2.2 mph3.5 kmh 29.52 in999.7 mb 0.04 in1.0 mm 0.00 in0.0 mm 0.23 in5.8 mm
06:55 AM 48.9°F9.4°C 44.6°F7.0°C 85% Calm Calm 0.7 mph1.1 kmh 29.52 in999.7 mb 0.06 in1.5 mm 0.24 in6.1 mm 0.24 in6.1 mm
07:00 AM 48.9°F9.4°C 44.6°F7.0°C 85% 0.4 mph NNW0.6 kmh NNW 1.6 mph2.6 kmh 29.52 in999.7 mb 0.06 in1.5 mm 0.00 in0.0 mm 0.25 in6.4 mm
07:05 AM 48.9°F9.4°C 44.6°F7.0°C 85% 0.8 mph WSW1.3 kmh WSW 2.2 mph3.5 kmh 29.52 in999.7 mb 0.07 in1.8 mm 0.12 in3.0 mm 0.26 in6.6 mm
07:10 AM 48.9°F9.4°C 44.6°F7.0°C 85% 0.3 mph W0.5 kmh W 1.6 mph2.6 kmh 29.52 in999.7 mb 0.08 in2.0 mm 0.12 in3.0 mm 0.27 in6.9 mm
07:15 AM 48.9°F9.4°C 44.9°F7.2°C 86% 0.8 mph WSW1.3 kmh WSW 2.2 mph3.5 kmh 29.53 in1000.0 mb 0.09 in2.3 mm 0.12 in3.0 mm 0.27 in6.9 mm
07:20 AM 48.9°F9.4°C 44.9°F7.2°C 86% Calm Calm 0.7 mph1.1 kmh 29.53 in1000.0 mb 0.09 in2.3 mm 0.00 in0.0 mm 0.28 in7.1 mm
07:25 AM 48.9°F9.4°C 44.9°F7.2°C 86% Calm Calm 0.7 mph1.1 kmh 29.53 in1000.0 mb 0.09 in2.3 mm 0.00 in0.0 mm 0.28 in7.1 mm
07:30 AM 48.7°F9.3°C 44.7°F7.1°C 86% Calm Calm -- 29.53 in1000.0 mb 0.08 in2.0 mm 0.00 in0.0 mm 0.28 in7.1 mm
07:35 AM 48.7°F9.3°C 44.7°F7.1°C 86% 0.2 mph SW0.3 kmh SW 1.6 mph2.6 kmh 29.53 in1000.0 mb 0.08 in2.0 mm 0.00 in0.0 mm 0.28 in7.1 mm
07:40 AM 48.7°F9.3°C 44.7°F7.1°C 86% 0.9 mph SW1.4 kmh SW 2.2 mph3.5 kmh 29.54 in1000.3 mb 0.07 in1.8 mm 0.00 in0.0 mm 0.28 in7.1 mm
07:45 AM 48.8°F9.3°C 44.8°F7.1°C 86% 1.4 mph SW2.3 kmh SW 2.2 mph3.5 kmh 29.54 in1000.3 mb 0.09 in2.3 mm 0.24 in6.1 mm 0.31 in7.9 mm
07:50 AM 48.9°F9.4°C 44.9°F7.2°C 86% 1.9 mph SW3.1 kmh SW 3.1 mph5.0 kmh 29.55 in1000.7 mb 0.09 in2.3 mm 0.00 in0.0 mm 0.32 in8.1 mm
07:55 AM 48.9°F9.4°C 44.9°F7.2°C 86% 0.8 mph WSW1.3 kmh WSW 2.2 mph3.5 kmh 29.55 in1000.7 mb 0.09 in2.3 mm 0.00 in0.0 mm 0.33 in8.4 mm
08:00 AM 48.9°F9.4°C 44.9°F7.2°C 86% Calm Calm 0.7 mph1.1 kmh 29.55 in1000.7 mb 0.09 in2.3 mm 0.00 in0.0 mm 0.33 in8.4 mm
08:05 AM 48.9°F9.4°C 44.9°F7.2°C 86% Calm Calm -- 29.55 in1000.7 mb 0.08 in2.0 mm 0.00 in0.0 mm 0.33 in8.4 mm
08:10 AM 48.9°F9.4°C 44.9°F7.2°C 86% 0.2 mph NW0.3 kmh NW 1.6 mph2.6 kmh 29.55 in1000.7 mb 0.07 in1.8 mm 0.00 in0.0 mm 0.33 in8.4 mm
08:15 AM 48.9°F9.4°C 44.9°F7.2°C 86% 0.2 mph NW0.3 kmh NW 1.6 mph2.6 kmh 29.56 in1001.0 mb 0.06 in1.5 mm 0.00 in0.0 mm 0.33 in8.4 mm
08:20 AM 48.9°F9.4°C 44.9°F7.2°C 86% 0.3 mph SW0.5 kmh SW 1.6 mph2.6 kmh 29.56 in1001.0 mb 0.06 in1.5 mm 0.00 in0.0 mm 0.33 in8.4 mm
08:25 AM 48.9°F9.4°C 44.9°F7.2°C 86% 0.5 mph NW0.8 kmh NW 2.2 mph3.5 kmh 29.56 in1001.0 mb 0.06 in1.5 mm 0.00 in0.0 mm 0.33 in8.4 mm
08:30 AM 48.9°F9.4°C 44.9°F7.2°C 86% 2.7 mph 4.3 kmh 3.8 mph6.1 kmh 29.57 in1001.4 mb 0.06 in1.5 mm 0.00 in0.0 mm 0.33 in8.4 mm
08:35 AM 48.9°F9.4°C 45.2°F7.3°C 87% 1.5 mph NNW2.4 kmh NNW 3.1 mph5.0 kmh 29.57 in1001.4 mb 0.06 in1.5 mm 0.00 in0.0 mm 0.34 in8.6 mm
08:40 AM 48.9°F9.4°C 45.2°F7.3°C 87% 2.9 mph 4.7 kmh 3.8 mph6.1 kmh 29.57 in1001.4 mb 0.06 in1.5 mm 0.00 in0.0 mm 0.35 in8.9 mm
08:45 AM 48.9°F9.4°C 45.2°F7.3°C 87% 2.4 mph NNE3.9 kmh NNE 3.8 mph6.1 kmh 29.57 in1001.4 mb 0.06 in1.5 mm 0.00 in0.0 mm 0.36 in9.1 mm
08:50 AM 48.9°F9.4°C 45.2°F7.3°C 87% 2.7 mph N4.3 kmh N 3.8 mph6.1 kmh 29.58 in1001.7 mb 0.05 in1.3 mm 0.00 in0.0 mm 0.37 in9.4 mm
08:55 AM 48.9°F9.4°C 45.2°F7.3°C 87% 2.2 mph NNE3.5 kmh NNE 4.5 mph7.2 kmh 29.58 in1001.7 mb 0.05 in1.3 mm 0.00 in0.0 mm 0.38 in9.7 mm
09:00 AM 48.8°F9.3°C 45.1°F7.3°C 87% 9.5 mph N15.3 kmh N 13.6 mph21.9 kmh 29.58 in1001.7 mb 0.04 in1.0 mm 0.00 in0.0 mm 0.38 in9.7 mm
09:05 AM 48.7°F9.3°C 45.0°F7.2°C 87% 8.3 mph 13.4 kmh 11.4 mph18.3 kmh 29.59 in1002.0 mb 0.04 in1.0 mm 0.00 in0.0 mm 0.38 in9.7 mm
09:10 AM 48.3°F9.1°C 44.4°F6.9°C 86% 6.1 mph N9.8 kmh N 11.4 mph18.3 kmh 29.60 in1002.4 mb 0.05 in1.3 mm 0.12 in3.0 mm 0.38 in9.7 mm
09:15 AM 47.9°F8.8°C 43.9°F6.6°C 86% 4.8 mph N7.7 kmh N 7.6 mph12.2 kmh 29.60 in1002.4 mb 0.05 in1.3 mm 0.00 in0.0 mm 0.38 in9.7 mm
09:20 AM 47.6°F8.7°C 43.6°F6.4°C 86% 4.3 mph NNE6.9 kmh NNE 6.9 mph11.1 kmh 29.60 in1002.4 mb 0.05 in1.3 mm 0.00 in0.0 mm 0.38 in9.7 mm
09:25 AM 47.4°F8.6°C 43.2°F6.2°C 86% 1.2 mph NNE1.9 kmh NNE 2.2 mph3.5 kmh 29.60 in1002.4 mb 0.05 in1.3 mm 0.00 in0.0 mm 0.38 in9.7 mm
09:30 AM 47.3°F8.5°C 43.0°F6.1°C 85% 0.5 mph WNW0.8 kmh WNW 2.2 mph3.5 kmh 29.61 in1002.7 mb 0.06 in1.5 mm 0.12 in3.0 mm 0.39 in9.9 mm
09:35 AM 47.1°F8.4°C 42.8°F6.0°C 85% 0.1 mph 0.2 kmh 1.6 mph2.6 kmh 29.61 in1002.7 mb 0.06 in1.5 mm 0.00 in0.0 mm 0.40 in10.2 mm
09:40 AM 47.1°F8.4°C 42.8°F6.0°C 85% 0.2 mph 0.3 kmh 1.6 mph2.6 kmh 29.61 in1002.7 mb 0.06 in1.5 mm 0.00 in0.0 mm 0.41 in10.4 mm
09:45 AM 47.1°F8.4°C 42.8°F6.0°C 85% 0.3 mph SSW0.5 kmh SSW 0.7 mph1.1 kmh 29.62 in1003.0 mb 0.05 in1.3 mm 0.00 in0.0 mm 0.41 in10.4 mm
09:50 AM 47.1°F8.4°C 42.8°F6.0°C 85% Calm Calm 0.7 mph1.1 kmh 29.62 in1003.0 mb 0.05 in1.3 mm 0.00 in0.0 mm 0.41 in10.4 mm
09:55 AM 47.1°F8.4°C 42.9°F6.1°C 85% 1.7 mph NE2.7 kmh NE 2.2 mph3.5 kmh 29.62 in1003.0 mb 0.05 in1.3 mm 0.00 in0.0 mm 0.42 in10.7 mm
10:00 AM 47.3°F8.5°C 43.3°F6.3°C 86% 0.3 mph 0.5 kmh 1.6 mph2.6 kmh 29.63 in1003.4 mb 0.05 in1.3 mm 0.00 in0.0 mm 0.43 in10.9 mm
10:05 AM 47.5°F8.6°C 43.5°F6.4°C 86% Calm Calm 0.7 mph1.1 kmh 29.64 in1003.7 mb 0.05 in1.3 mm 0.00 in0.0 mm 0.43 in10.9 mm
10:10 AM 47.5°F8.6°C 43.5°F6.4°C 86% 1.2 mph SW1.9 kmh SW 3.1 mph5.0 kmh 29.64 in1003.7 mb 0.06 in1.5 mm 0.12 in3.0 mm 0.44 in11.2 mm
10:15 AM 47.5°F8.6°C 43.5°F6.4°C 86% 1.1 mph SE1.8 kmh SE 2.2 mph3.5 kmh 29.64 in1003.7 mb 0.07 in1.8 mm 0.12 in3.0 mm 0.45 in11.4 mm
10:20 AM 47.5°F8.6°C 43.5°F6.4°C 86% 0.6 mph NW1.0 kmh NW 2.2 mph3.5 kmh 29.65 in1004.1 mb 0.08 in2.0 mm 0.12 in3.0 mm 0.46 in11.7 mm
10:25 AM 47.7°F8.7°C 43.7°F6.5°C 86% 2.3 mph NW3.7 kmh NW 4.5 mph7.2 kmh 29.65 in1004.1 mb 0.09 in2.3 mm 0.12 in3.0 mm 0.47 in11.9 mm
10:30 AM 47.7°F8.7°C 43.7°F6.5°C 86% 4.6 mph NNW7.4 kmh NNW 7.6 mph12.2 kmh 29.65 in1004.1 mb 0.09 in2.3 mm 0.00 in0.0 mm 0.48 in12.2 mm
10:35 AM 47.8°F8.8°C 43.8°F6.6°C 86% 4.9 mph 7.9 kmh 9.2 mph14.8 kmh 29.64 in1003.7 mb 0.08 in2.0 mm 0.00 in0.0 mm 0.48 in12.2 mm
10:40 AM 47.9°F8.8°C 43.9°F6.6°C 86% 3.5 mph 5.6 kmh 6.0 mph9.7 kmh 29.64 in1003.7 mb 0.07 in1.8 mm 0.00 in0.0 mm 0.48 in12.2 mm
10:45 AM 48.0°F8.9°C 44.0°F6.7°C 86% 2.9 mph N4.7 kmh N 5.4 mph8.7 kmh 29.64 in1003.7 mb 0.07 in1.8 mm 0.00 in0.0 mm 0.48 in12.2 mm
10:50 AM 48.0°F8.9°C 44.0°F6.7°C 86% 1.7 mph N2.7 kmh N 3.1 mph5.0 kmh 29.65 in1004.1 mb 0.07 in1.8 mm 0.00 in0.0 mm 0.48 in12.2 mm
10:56 AM 48.0°F8.9°C 44.0°F6.7°C 86% 0.7 mph 1.1 kmh 1.6 mph2.6 kmh 29.65 in1004.1 mb 0.06 in1.5 mm 0.00 in0.0 mm 0.48 in12.2 mm
11:00 AM 48.0°F8.9°C 44.0°F6.7°C 86% 0.5 mph 0.8 kmh 1.6 mph2.6 kmh 29.66 in1004.4 mb 0.06 in1.5 mm 0.00 in0.0 mm 0.48 in12.2 mm
11:05 AM 48.0°F8.9°C 44.0°F6.7°C 86% 0.1 mph 0.2 kmh 1.6 mph2.6 kmh 29.65 in1004.1 mb 0.06 in1.5 mm 0.00 in0.0 mm 0.48 in12.2 mm
11:10 AM 48.0°F8.9°C 44.0°F6.7°C 86% 1.6 mph NE2.6 kmh NE 3.1 mph5.0 kmh 29.65 in1004.1 mb 0.04 in1.0 mm 0.00 in0.0 mm 0.48 in12.2 mm
11:15 AM 48.1°F8.9°C 44.1°F6.7°C 86% 1.3 mph NE2.1 kmh NE 2.2 mph3.5 kmh 29.65 in1004.1 mb 0.03 in0.8 mm 0.00 in0.0 mm 0.48 in12.2 mm
11:20 AM 48.2°F9.0°C 44.2°F6.8°C 86% 0.2 mph 0.3 kmh 1.6 mph2.6 kmh 29.65 in1004.1 mb 0.02 in0.5 mm 0.00 in0.0 mm 0.48 in12.2 mm
11:25 AM 48.3°F9.1°C 44.3°F6.8°C 86% 0.2 mph SE0.3 kmh SE 1.6 mph2.6 kmh 29.65 in1004.1 mb 0.01 in0.3 mm 0.00 in0.0 mm 0.48 in12.2 mm
11:30 AM 48.5°F9.2°C 44.5°F6.9°C 86% 0.7 mph W1.1 kmh W 2.2 mph3.5 kmh 29.66 in1004.4 mb 0.01 in0.3 mm 0.00 in0.0 mm 0.48 in12.2 mm
11:35 AM 48.7°F9.3°C 44.7°F7.1°C 86% 1.1 mph N1.8 kmh N 2.2 mph3.5 kmh 29.65 in1004.1 mb 0.00 in0.0 mm 0.00 in0.0 mm 0.48 in12.2 mm
11:40 AM 48.9°F9.4°C 44.9°F7.2°C 86% 2.0 mph ENE3.2 kmh ENE 3.8 mph6.1 kmh 29.65 in1004.1 mb 0.00 in0.0 mm 0.00 in0.0 mm 0.48 in12.2 mm
11:45 AM 49.1°F9.5°C 45.1°F7.3°C 86% 2.5 mph ENE4.0 kmh ENE 3.8 mph6.1 kmh 29.65 in1004.1 mb 0.00 in0.0 mm 0.00 in0.0 mm 0.48 in12.2 mm
11:50 AM 49.3°F9.6°C 45.3°F7.4°C 86% 1.4 mph NNE2.3 kmh NNE 3.1 mph5.0 kmh 29.65 in1004.1 mb 0.00 in0.0 mm 0.00 in0.0 mm 0.48 in12.2 mm
11:55 AM 49.4°F9.7°C 45.4°F7.4°C 86% 1.8 mph NNW2.9 kmh NNW 3.1 mph5.0 kmh 29.66 in1004.4 mb 0.00 in0.0 mm 0.00 in0.0 mm 0.48 in12.2 mm
12:00 PM 49.7°F9.8°C 45.7°F7.6°C 86% 2.0 mph N3.2 kmh N 3.8 mph6.1 kmh 29.65 in1004.1 mb 0.00 in0.0 mm 0.00 in0.0 mm 0.48 in12.2 mm
12:05 PM 49.8°F9.9°C 45.8°F7.7°C 86% 0.7 mph 1.1 kmh 1.6 mph2.6 kmh 29.66 in1004.4 mb 0.00 in0.0 mm 0.00 in0.0 mm 0.48 in12.2 mm
12:10 PM 50.0°F10.0°C 46.0°F7.8°C 86% 1.2 mph N1.9 kmh N 3.1 mph5.0 kmh 29.66 in1004.4 mb 0.00 in0.0 mm 0.00 in0.0 mm 0.48 in12.2 mm
12:15 PM 50.2°F10.1°C 45.9°F7.7°C 85% 1.1 mph N1.8 kmh N 2.2 mph3.5 kmh 29.67 in1004.7 mb 0.00 in0.0 mm 0.00 in0.0 mm 0.48 in12.2 mm
12:20 PM 50.2°F10.1°C 45.7°F7.6°C 85% 1.3 mph NE2.1 kmh NE 2.2 mph3.5 kmh 29.66 in1004.4 mb 0.00 in0.0 mm 0.00 in0.0 mm 0.48 in12.2 mm
12:25 PM 50.2°F10.1°C 45.5°F7.5°C 84% 1.2 mph SSE1.9 kmh SSE 2.2 mph3.5 kmh 29.66 in1004.4 mb 0.00 in0.0 mm 0.00 in0.0 mm 0.48 in12.2 mm
12:30 PM 50.2°F10.1°C 45.2°F7.3°C 83% 1.9 mph SSE3.1 kmh SSE 3.1 mph5.0 kmh 29.67 in1004.7 mb 0.00 in0.0 mm 0.00 in0.0 mm 0.48 in12.2 mm
12:35 PM 50.2°F10.1°C 45.0°F7.2°C 82% 2.7 mph ENE4.3 kmh ENE 5.4 mph8.7 kmh 29.67 in1004.7 mb 0.00 in0.0 mm 0.00 in0.0 mm 0.48 in12.2 mm
12:40 PM 50.4°F10.2°C 45.1°F7.3°C 82% 1.6 mph NE2.6 kmh NE 3.1 mph5.0 kmh 29.67 in1004.7 mb 0.00 in0.0 mm 0.00 in0.0 mm 0.48 in12.2 mm
12:45 PM 50.6°F10.3°C 44.9°F7.2°C 81% 2.4 mph E3.9 kmh E 4.5 mph7.2 kmh 29.68 in1005.1 mb 0.00 in0.0 mm 0.00 in0.0 mm 0.48 in12.2 mm
12:50 PM 50.7°F10.4°C 44.6°F7.0°C 79% 1.5 mph ENE2.4 kmh ENE 3.1 mph5.0 kmh 29.68 in1005.1 mb 0.00 in0.0 mm 0.00 in0.0 mm 0.48 in12.2 mm
12:55 PM 50.9°F10.5°C 44.2°F6.8°C 78% 2.1 mph E3.4 kmh E 3.1 mph5.0 kmh 29.68 in1005.1 mb 0.00 in0.0 mm 0.00 in0.0 mm 0.48 in12.2 mm
01:00 PM 51.0°F10.6°C 44.0°F6.7°C 77% 1.7 mph NE2.7 kmh NE 3.1 mph5.0 kmh 29.68 in1005.1 mb 0.00 in0.0 mm 0.00 in0.0 mm 0.48 in12.2 mm
01:05 PM 51.2°F10.7°C 43.7°F6.5°C 76% 1.5 mph S2.4 kmh S 3.1 mph5.0 kmh 29.68 in1005.1 mb 0.00 in0.0 mm 0.00 in0.0 mm 0.48 in12.2 mm
01:10 PM 50.9°F10.5°C 42.4°F5.8°C 72% 0.7 mph SW1.1 kmh SW 2.2 mph3.5 kmh 29.68 in1005.1 mb 0.00 in0.0 mm 0.00 in0.0 mm 0.48 in12.2 mm
01:15 PM 50.9°F10.5°C 42.1°F5.6°C 72% 1.9 mph S3.1 kmh S 3.1 mph5.0 kmh 29.68 in1005.1 mb 0.00 in0.0 mm 0.00 in0.0 mm 0.48 in12.2 mm
01:20 PM 51.0°F10.6°C 42.0°F5.6°C 71% 1.5 mph S2.4 kmh S 3.1 mph5.0 kmh 29.68 in1005.1 mb 0.00 in0.0 mm 0.00 in0.0 mm 0.48 in12.2 mm
01:25 PM 51.1°F10.6°C 42.0°F5.6°C 71% 0.4 mph E0.6 kmh E 1.6 mph2.6 kmh 29.68 in1005.1 mb 0.00 in0.0 mm 0.00 in0.0 mm 0.48 in12.2 mm
01:30 PM 51.1°F10.6°C 42.0°F5.6°C 71% 1.0 mph SW1.6 kmh SW 3.8 mph6.1 kmh 29.68 in1005.1 mb 0.00 in0.0 mm 0.00 in0.0 mm 0.48 in12.2 mm
01:35 PM 51.0°F10.6°C 41.9°F5.5°C 71% 3.0 mph S4.8 kmh S 4.5 mph7.2 kmh 29.69 in1005.4 mb 0.00 in0.0 mm 0.00 in0.0 mm 0.48 in12.2 mm
01:40 PM 50.9°F10.5°C 41.8°F5.4°C 71% 4.0 mph S6.4 kmh S 6.0 mph9.7 kmh 29.69 in1005.4 mb 0.00 in0.0 mm 0.00 in0.0 mm 0.48 in12.2 mm
01:45 PM 50.8°F10.4°C 41.8°F5.4°C 71% 2.5 mph S4.0 kmh S 3.8 mph6.1 kmh 29.69 in1005.4 mb 0.00 in0.0 mm 0.00 in0.0 mm 0.48 in12.2 mm
01:50 PM 51.0°F10.6°C 41.9°F5.5°C 71% 2.3 mph WSW3.7 kmh WSW 3.8 mph6.1 kmh 29.69 in1005.4 mb 0.00 in0.0 mm 0.00 in0.0 mm 0.48 in12.2 mm
01:55 PM 51.1°F10.6°C 42.0°F5.6°C 71% 1.8 mph SSW2.9 kmh SSW 3.8 mph6.1 kmh 29.69 in1005.4 mb 0.00 in0.0 mm 0.00 in0.0 mm 0.48 in12.2 mm
02:00 PM 51.3°F10.7°C 42.2°F5.7°C 71% 3.3 mph S5.3 kmh S 5.4 mph8.7 kmh 29.69 in1005.4 mb 0.00 in0.0 mm 0.00 in0.0 mm 0.48 in12.2 mm
02:05 PM 51.4°F10.8°C 42.0°F5.6°C 70% 3.8 mph SSW6.1 kmh SSW 4.5 mph7.2 kmh 29.69 in1005.4 mb 0.00 in0.0 mm 0.00 in0.0 mm 0.48 in12.2 mm
02:10 PM 51.4°F10.8°C 42.0°F5.6°C 70% 4.1 mph SSE6.6 kmh SSE 6.0 mph9.7 kmh 29.70 in1005.8 mb 0.00 in0.0 mm 0.00 in0.0 mm 0.48 in12.2 mm
02:15 PM 51.4°F10.8°C 42.0°F5.6°C 70% 4.0 mph S6.4 kmh S 6.0 mph9.7 kmh 29.69 in1005.4 mb 0.00 in0.0 mm 0.00 in0.0 mm 0.48 in12.2 mm
02:20 PM 51.3°F10.7°C 41.9°F5.5°C 70% 2.6 mph SSE4.2 kmh SSE 4.5 mph7.2 kmh 29.70 in1005.8 mb 0.00 in0.0 mm 0.00 in0.0 mm 0.48 in12.2 mm
02:25 PM 51.1°F10.6°C 41.6°F5.3°C 70% 1.2 mph S1.9 kmh S 3.1 mph5.0 kmh 29.69 in1005.4 mb 0.00 in0.0 mm 0.00 in0.0 mm 0.48 in12.2 mm
02:30 PM 51.2°F10.7°C 41.8°F5.4°C 70% 2.7 mph S4.3 kmh S 3.8 mph6.1 kmh 29.70 in1005.8 mb 0.00 in0.0 mm 0.00 in0.0 mm 0.48 in12.2 mm
02:35 PM 51.4°F10.8°C 42.0°F5.6°C 70% 2.7 mph S4.3 kmh S 4.5 mph7.2 kmh 29.70 in1005.8 mb 0.00 in0.0 mm 0.00 in0.0 mm 0.48 in12.2 mm
02:40 PM 51.3°F10.7°C 41.9°F5.5°C 70% 2.4 mph SW3.9 kmh SW 3.8 mph6.1 kmh 29.71 in1006.1 mb 0.00 in0.0 mm 0.00 in0.0 mm 0.48 in12.2 mm
02:45 PM 51.3°F10.7°C 41.8°F5.4°C 70% 0.5 mph SE0.8 kmh SE 2.2 mph3.5 kmh 29.70 in1005.8 mb 0.00 in0.0 mm 0.00 in0.0 mm 0.48 in12.2 mm
02:50 PM 51.3°F10.7°C 41.8°F5.4°C 70% 1.2 mph S1.9 kmh S 1.6 mph2.6 kmh 29.71 in1006.1 mb 0.00 in0.0 mm 0.00 in0.0 mm 0.48 in12.2 mm
02:55 PM 51.1°F10.6°C 41.6°F5.3°C 70% 1.3 mph E2.1 kmh E 3.1 mph5.0 kmh 29.70 in1005.8 mb 0.00 in0.0 mm 0.00 in0.0 mm 0.48 in12.2 mm
03:00 PM 50.9°F10.5°C 41.5°F5.3°C 70% 2.1 mph NE3.4 kmh NE 3.8 mph6.1 kmh 29.71 in1006.1 mb 0.00 in0.0 mm 0.00 in0.0 mm 0.48 in12.2 mm
03:05 PM 50.7°F10.4°C 41.3°F5.2°C 70% 0.7 mph E1.1 kmh E 1.6 mph2.6 kmh 29.71 in1006.1 mb 0.00 in0.0 mm 0.00 in0.0 mm 0.48 in12.2 mm
03:10 PM 50.6°F10.3°C 41.4°F5.2°C 71% 2.1 mph SE3.4 kmh SE 5.4 mph8.7 kmh 29.71 in1006.1 mb 0.00 in0.0 mm 0.00 in0.0 mm 0.48 in12.2 mm
03:15 PM 50.4°F10.2°C 41.3°F5.2°C 71% 2.2 mph SE3.5 kmh SE 3.8 mph6.1 kmh 29.71 in1006.1 mb 0.00 in0.0 mm 0.00 in0.0 mm 0.48 in12.2 mm
03:20 PM 50.2°F10.1°C 41.1°F5.1°C 71% 1.3 mph ESE2.1 kmh ESE 3.1 mph5.0 kmh 29.71 in1006.1 mb 0.00 in0.0 mm 0.00 in0.0 mm 0.48 in12.2 mm
03:25 PM 50.1°F10.1°C 41.1°F5.1°C 71% 1.7 mph SE2.7 kmh SE 3.1 mph5.0 kmh 29.71 in1006.1 mb 0.00 in0.0 mm 0.00 in0.0 mm 0.48 in12.2 mm
03:30 PM 50.0°F10.0°C 41.0°F5.0°C 71% 3.0 mph S4.8 kmh S 4.5 mph7.2 kmh 29.71 in1006.1 mb 0.00 in0.0 mm 0.00 in0.0 mm 0.48 in12.2 mm
03:35 PM 50.0°F10.0°C 41.2°F5.1°C 72% 2.5 mph SSW4.0 kmh SSW 3.8 mph6.1 kmh 29.71 in1006.1 mb 0.00 in0.0 mm 0.00 in0.0 mm 0.48 in12.2 mm
03:40 PM 49.9°F9.9°C 41.3°F5.2°C 72% 2.3 mph S3.7 kmh S 3.8 mph6.1 kmh 29.72 in1006.4 mb 0.00 in0.0 mm 0.00 in0.0 mm 0.48 in12.2 mm
03:45 PM 49.8°F9.9°C 41.2°F5.1°C 72% 1.7 mph WSW2.7 kmh WSW 2.2 mph3.5 kmh 29.72 in1006.4 mb 0.00 in0.0 mm 0.00 in0.0 mm 0.48 in12.2 mm
03:50 PM 49.8°F9.9°C 41.2°F5.1°C 72% 1.3 mph SW2.1 kmh SW 3.1 mph5.0 kmh 29.72 in1006.4 mb 0.00 in0.0 mm 0.00 in0.0 mm 0.48 in12.2 mm
03:55 PM 49.7°F9.8°C 41.1°F5.1°C 72% 2.5 mph S4.0 kmh S 4.5 mph7.2 kmh 29.72 in1006.4 mb 0.00 in0.0 mm 0.00 in0.0 mm 0.48 in12.2 mm
04:00 PM 49.5°F9.7°C 41.1°F5.1°C 73% 2.5 mph SW4.0 kmh SW 4.5 mph7.2 kmh 29.72 in1006.4 mb 0.00 in0.0 mm 0.00 in0.0 mm 0.48 in12.2 mm
04:05 PM 49.5°F9.7°C 41.2°F5.1°C 73% 2.2 mph SW3.5 kmh SW 3.1 mph5.0 kmh 29.72 in1006.4 mb 0.00 in0.0 mm 0.00 in0.0 mm 0.48 in12.2 mm
04:10 PM 49.3°F9.6°C 41.0°F5.0°C 73% 2.5 mph SSW4.0 kmh SSW 5.4 mph8.7 kmh 29.72 in1006.4 mb 0.00 in0.0 mm 0.00 in0.0 mm 0.48 in12.2 mm
04:15 PM 49.2°F9.6°C 40.9°F4.9°C 73% 5.2 mph S8.4 kmh S 10.7 mph17.2 kmh 29.73 in1006.8 mb 0.00 in0.0 mm 0.00 in0.0 mm 0.48 in12.2 mm
04:20 PM 48.9°F9.4°C 40.7°F4.8°C 73% 3.0 mph S4.8 kmh S 5.4 mph8.7 kmh 29.72 in1006.4 mb 0.00 in0.0 mm 0.00 in0.0 mm 0.48 in12.2 mm
04:25 PM 48.9°F9.4°C 40.7°F4.8°C 73% 3.5 mph SSW5.6 kmh SSW 5.4 mph8.7 kmh 29.73 in1006.8 mb 0.00 in0.0 mm 0.00 in0.0 mm 0.48 in12.2 mm
04:30 PM 48.9°F9.4°C 40.7°F4.8°C 73% 1.9 mph E3.1 kmh E 3.8 mph6.1 kmh 29.73 in1006.8 mb 0.00 in0.0 mm 0.00 in0.0 mm 0.48 in12.2 mm
04:35 PM 48.7°F9.3°C 40.5°F4.7°C 73% 2.1 mph SE3.4 kmh SE 3.8 mph6.1 kmh 29.73 in1006.8 mb 0.00 in0.0 mm 0.00 in0.0 mm 0.48 in12.2 mm
04:40 PM 48.6°F9.2°C 40.4°F4.7°C 73% 2.4 mph S3.9 kmh S 4.5 mph7.2 kmh 29.73 in1006.8 mb 0.00 in0.0 mm 0.00 in0.0 mm 0.48 in12.2 mm
04:45 PM 48.6°F9.2°C 40.3°F4.6°C 73% 3.0 mph WSW4.8 kmh WSW 4.5 mph7.2 kmh 29.73 in1006.8 mb 0.00 in0.0 mm 0.00 in0.0 mm 0.48 in12.2 mm
04:50 PM 48.6°F9.2°C 40.5°F4.7°C 73% 1.9 mph SW3.1 kmh SW 8.3 mph13.4 kmh 29.73 in1006.8 mb 0.00 in0.0 mm 0.00 in0.0 mm 0.48 in12.2 mm
04:55 PM 48.6°F9.2°C 40.7°F4.8°C 74% 4.1 mph S6.6 kmh S 8.3 mph13.4 kmh 29.73 in1006.8 mb 0.00 in0.0 mm 0.00 in0.0 mm 0.48 in12.2 mm
05:00 PM 48.6°F9.2°C 40.7°F4.8°C 74% 4.8 mph S7.7 kmh S 9.2 mph14.8 kmh 29.74 in1007.1 mb 0.00 in0.0 mm 0.00 in0.0 mm 0.48 in12.2 mm
05:05 PM 48.6°F9.2°C 40.7°F4.8°C 74% 3.3 mph S5.3 kmh S 6.0 mph9.7 kmh 29.74 in1007.1 mb 0.00 in0.0 mm 0.00 in0.0 mm 0.48 in12.2 mm
05:10 PM 48.7°F9.3°C 40.5°F4.7°C 73% 1.6 mph SW2.6 kmh SW 3.1 mph5.0 kmh 29.74 in1007.1 mb 0.00 in0.0 mm 0.00 in0.0 mm 0.48 in12.2 mm
05:15 PM 48.7°F9.3°C 40.5°F4.7°C 73% 0.8 mph SW1.3 kmh SW 1.6 mph2.6 kmh 29.74 in1007.1 mb 0.00 in0.0 mm 0.00 in0.0 mm 0.48 in12.2 mm
05:20 PM 48.7°F9.3°C 40.4°F4.7°C 73% 1.5 mph WSW2.4 kmh WSW 2.2 mph3.5 kmh 29.74 in1007.1 mb 0.00 in0.0 mm 0.00 in0.0 mm 0.48 in12.2 mm
05:25 PM 48.6°F9.2°C 40.3°F4.6°C 73% 1.2 mph WSW1.9 kmh WSW 2.2 mph3.5 kmh 29.74 in1007.1 mb 0.00 in0.0 mm 0.00 in0.0 mm 0.48 in12.2 mm
05:30 PM 48.6°F9.2°C 40.3°F4.6°C 73% 0.8 mph SW1.3 kmh SW 2.2 mph3.5 kmh 29.74 in1007.1 mb 0.00 in0.0 mm 0.00 in0.0 mm 0.48 in12.2 mm
05:35 PM 48.6°F9.2°C 40.3°F4.6°C 73% 0.4 mph WNW0.6 kmh WNW 1.6 mph2.6 kmh 29.75 in1007.5 mb 0.00 in0.0 mm 0.00 in0.0 mm 0.48 in12.2 mm
05:40 PM 48.6°F9.2°C 40.3°F4.6°C 73% 0.4 mph NNW0.6 kmh NNW 2.2 mph3.5 kmh 29.75 in1007.5 mb 0.00 in0.0 mm 0.00 in0.0 mm 0.48 in12.2 mm
05:45 PM 48.6°F9.2°C 40.3°F4.6°C 73% 0.2 mph 0.3 kmh 2.2 mph3.5 kmh 29.75 in1007.5 mb 0.00 in0.0 mm 0.00 in0.0 mm 0.48 in12.2 mm
05:50 PM 48.6°F9.2°C 40.3°F4.6°C 73% 0.1 mph W0.2 kmh W 1.6 mph2.6 kmh 29.75 in1007.5 mb 0.00 in0.0 mm 0.00 in0.0 mm 0.48 in12.2 mm
05:55 PM 48.5°F9.2°C 40.2°F4.6°C 73% 1.0 mph NW1.6 kmh NW 2.2 mph3.5 kmh 29.75 in1007.5 mb 0.00 in0.0 mm 0.00 in0.0 mm 0.48 in12.2 mm
06:00 PM 48.4°F9.1°C 40.1°F4.5°C 73% 0.5 mph NE0.8 kmh NE 2.2 mph3.5 kmh 29.75 in1007.5 mb 0.00 in0.0 mm 0.00 in0.0 mm 0.48 in12.2 mm
06:05 PM 48.4°F9.1°C 40.1°F4.5°C 73% 0.7 mph SW1.1 kmh SW 2.2 mph3.5 kmh 29.75 in1007.5 mb 0.00 in0.0 mm 0.00 in0.0 mm 0.48 in12.2 mm
06:10 PM 48.3°F9.1°C 40.0°F4.4°C 73% 2.1 mph SSE3.4 kmh SSE 5.4 mph8.7 kmh 29.75 in1007.5 mb 0.00 in0.0 mm 0.00 in0.0 mm 0.48 in12.2 mm
06:15 PM 48.2°F9.0°C 40.0°F4.4°C 73% 3.3 mph SSE5.3 kmh SSE 5.4 mph8.7 kmh 29.75 in1007.5 mb 0.00 in0.0 mm 0.00 in0.0 mm 0.48 in12.2 mm
06:20 PM 48.2°F9.0°C 40.0°F4.4°C 73% 2.0 mph S3.2 kmh S 3.8 mph6.1 kmh 29.75 in1007.5 mb 0.00 in0.0 mm 0.00 in0.0 mm 0.48 in12.2 mm
06:25 PM 48.2°F9.0°C 40.0°F4.4°C 73% 2.7 mph S4.3 kmh S 3.8 mph6.1 kmh 29.75 in1007.5 mb 0.00 in0.0 mm 0.00 in0.0 mm 0.48 in12.2 mm
06:30 PM 48.2°F9.0°C 40.0°F4.4°C 73% 3.8 mph SE6.1 kmh SE 5.4 mph8.7 kmh 29.75 in1007.5 mb 0.00 in0.0 mm 0.00 in0.0 mm 0.48 in12.2 mm
06:35 PM 48.2°F9.0°C 40.0°F4.4°C 73% 3.8 mph S6.1 kmh S 6.0 mph9.7 kmh 29.75 in1007.5 mb 0.00 in0.0 mm 0.00 in0.0 mm 0.48 in12.2 mm
06:40 PM 48.2°F9.0°C 40.0°F4.4°C 73% 2.9 mph SSE4.7 kmh SSE 4.5 mph7.2 kmh 29.75 in1007.5 mb 0.00 in0.0 mm 0.00 in0.0 mm 0.48 in12.2 mm
06:45 PM 48.4°F9.1°C 40.1°F4.5°C 73% 4.5 mph SSE7.2 kmh SSE 6.0 mph9.7 kmh 29.75 in1007.5 mb 0.00 in0.0 mm 0.00 in0.0 mm 0.48 in12.2 mm
06:50 PM 48.4°F9.1°C 40.1°F4.5°C 73% 3.9 mph S6.3 kmh S 6.9 mph11.1 kmh 29.75 in1007.5 mb 0.00 in0.0 mm 0.00 in0.0 mm 0.48 in12.2 mm
06:55 PM 48.5°F9.2°C 39.9°F4.4°C 72% 2.8 mph SSE4.5 kmh SSE 4.5 mph7.2 kmh 29.75 in1007.5 mb 0.00 in0.0 mm 0.00 in0.0 mm 0.48 in12.2 mm
07:00 PM 48.5°F9.2°C 39.9°F4.4°C 72% 1.0 mph SSW1.6 kmh SSW 3.1 mph5.0 kmh 29.75 in1007.5 mb 0.00 in0.0 mm 0.00 in0.0 mm 0.48 in12.2 mm
07:05 PM 48.4°F9.1°C 39.8°F4.3°C 72% 1.9 mph SSE3.1 kmh SSE 3.1 mph5.0 kmh 29.75 in1007.5 mb 0.00 in0.0 mm 0.00 in0.0 mm 0.48 in12.2 mm
07:10 PM 48.2°F9.0°C 39.6°F4.2°C 72% 2.1 mph ESE3.4 kmh ESE 4.5 mph7.2 kmh 29.75 in1007.5 mb 0.00 in0.0 mm 0.00 in0.0 mm 0.48 in12.2 mm
07:15 PM 48.2°F9.0°C 39.6°F4.2°C 72% 1.8 mph E2.9 kmh E 3.8 mph6.1 kmh 29.75 in1007.5 mb 0.00 in0.0 mm 0.00 in0.0 mm 0.48 in12.2 mm
07:20 PM 48.0°F8.9°C 39.4°F4.1°C 72% 1.7 mph SE2.7 kmh SE 3.1 mph5.0 kmh 29.75 in1007.5 mb 0.00 in0.0 mm 0.00 in0.0 mm 0.48 in12.2 mm
07:25 PM 47.8°F8.8°C 39.2°F4.0°C 72% 0.5 mph S0.8 kmh S 2.2 mph3.5 kmh 29.76 in1007.8 mb 0.00 in0.0 mm 0.00 in0.0 mm 0.48 in12.2 mm
07:30 PM 47.7°F8.7°C 39.1°F3.9°C 72% 1.4 mph SW2.3 kmh SW 3.8 mph6.1 kmh 29.76 in1007.8 mb 0.00 in0.0 mm 0.00 in0.0 mm 0.48 in12.2 mm
07:35 PM 47.6°F8.7°C 39.1°F3.9°C 72% 1.0 mph SSW1.6 kmh SSW 2.2 mph3.5 kmh 29.76 in1007.8 mb 0.00 in0.0 mm 0.00 in0.0 mm 0.48 in12.2 mm
07:40 PM 47.4°F8.6°C 38.9°F3.8°C 72% 1.0 mph NE1.6 kmh NE 2.2 mph3.5 kmh 29.76 in1007.8 mb 0.00 in0.0 mm 0.00 in0.0 mm 0.48 in12.2 mm
07:45 PM 47.2°F8.4°C 38.7°F3.7°C 72% 1.2 mph NE1.9 kmh NE 2.2 mph3.5 kmh 29.77 in1008.1 mb 0.00 in0.0 mm 0.00 in0.0 mm 0.48 in12.2 mm
07:50 PM 46.9°F8.3°C 38.3°F3.5°C 72% 2.4 mph NE3.9 kmh NE 5.4 mph8.7 kmh 29.77 in1008.1 mb 0.00 in0.0 mm 0.00 in0.0 mm 0.48 in12.2 mm
07:55 PM 46.6°F8.1°C 38.4°F3.6°C 73% 1.2 mph ENE1.9 kmh ENE 3.1 mph5.0 kmh 29.77 in1008.1 mb 0.00 in0.0 mm 0.00 in0.0 mm 0.48 in12.2 mm
08:00 PM 46.4°F8.0°C 38.2°F3.4°C 73% 0.9 mph NNW1.4 kmh NNW 1.6 mph2.6 kmh 29.77 in1008.1 mb 0.00 in0.0 mm 0.00 in0.0 mm 0.48 in12.2 mm
08:05 PM 46.4°F8.0°C 38.2°F3.4°C 73% Calm Calm 0.7 mph1.1 kmh 29.77 in1008.1 mb 0.00 in0.0 mm 0.00 in0.0 mm 0.48 in12.2 mm
08:10 PM 46.0°F7.8°C 38.7°F3.7°C 76% 1.3 mph NNE2.1 kmh NNE 3.1 mph5.0 kmh 29.77 in1008.1 mb 0.00 in0.0 mm 0.00 in0.0 mm 0.48 in12.2 mm
08:15 PM 45.3°F7.4°C 39.5°F4.2°C 80% 1.3 mph NNE2.1 kmh NNE 2.2 mph3.5 kmh 29.77 in1008.1 mb 0.00 in0.0 mm 0.00 in0.0 mm 0.48 in12.2 mm
08:20 PM 44.9°F7.2°C 39.1°F3.9°C 80% 2.7 mph NE4.3 kmh NE 3.8 mph6.1 kmh 29.77 in1008.1 mb 0.00 in0.0 mm 0.00 in0.0 mm 0.48 in12.2 mm
08:25 PM 44.4°F6.9°C 38.6°F3.7°C 80% 2.4 mph NNE3.9 kmh NNE 3.8 mph6.1 kmh 29.77 in1008.1 mb 0.00 in0.0 mm 0.00 in0.0 mm 0.48 in12.2 mm
08:30 PM 44.0°F6.7°C 38.3°F3.5°C 80% 2.1 mph 3.4 kmh 3.1 mph5.0 kmh 29.77 in1008.1 mb 0.00 in0.0 mm 0.00 in0.0 mm 0.48 in12.2 mm
08:35 PM 43.6°F6.4°C 38.2°F3.4°C 81% 2.9 mph N4.7 kmh N 3.8 mph6.1 kmh 29.78 in1008.5 mb 0.00 in0.0 mm 0.00 in0.0 mm 0.48 in12.2 mm
08:40 PM 43.5°F6.4°C 38.0°F3.3°C 81% 1.6 mph E2.6 kmh E 3.1 mph5.0 kmh 29.77 in1008.1 mb 0.00 in0.0 mm 0.00 in0.0 mm 0.48 in12.2 mm
08:45 PM 43.2°F6.2°C 37.9°F3.3°C 81% 1.8 mph NE2.9 kmh NE 2.2 mph3.5 kmh 29.78 in1008.5 mb 0.00 in0.0 mm 0.00 in0.0 mm 0.48 in12.2 mm
08:50 PM 42.9°F6.1°C 37.8°F3.2°C 82% 0.5 mph NE0.8 kmh NE 1.6 mph2.6 kmh 29.78 in1008.5 mb 0.00 in0.0 mm 0.00 in0.0 mm 0.48 in12.2 mm
08:55 PM 42.7°F5.9°C 37.6°F3.1°C 82% 0.2 mph 0.3 kmh 0.7 mph1.1 kmh 29.78 in1008.5 mb 0.00 in0.0 mm 0.00 in0.0 mm 0.48 in12.2 mm
09:00 PM 42.5°F5.8°C 37.4°F3.0°C 82% 1.8 mph ENE2.9 kmh ENE 3.8 mph6.1 kmh 29.78 in1008.5 mb 0.00 in0.0 mm 0.00 in0.0 mm 0.48 in12.2 mm
09:05 PM 42.3°F5.7°C 37.2°F2.9°C 82% 2.6 mph NE4.2 kmh NE 3.8 mph6.1 kmh 29.78 in1008.5 mb 0.00 in0.0 mm 0.00 in0.0 mm 0.48 in12.2 mm
09:10 PM 42.1°F5.6°C 37.0°F2.8°C 82% 2.3 mph NE3.7 kmh NE 3.1 mph5.0 kmh 29.78 in1008.5 mb 0.00 in0.0 mm 0.00 in0.0 mm 0.48 in12.2 mm
09:15 PM 41.9°F5.5°C 36.9°F2.7°C 82% 1.9 mph NNE3.1 kmh NNE 3.1 mph5.0 kmh 29.78 in1008.5 mb 0.00 in0.0 mm 0.00 in0.0 mm 0.48 in12.2 mm
09:20 PM 41.9°F5.5°C 37.1°F2.8°C 83% 2.0 mph NNE3.2 kmh NNE 3.1 mph5.0 kmh 29.78 in1008.5 mb 0.00 in0.0 mm 0.00 in0.0 mm 0.48 in12.2 mm
09:25 PM 41.7°F5.4°C 36.9°F2.7°C 83% 3.0 mph N4.8 kmh N 3.8 mph6.1 kmh 29.78 in1008.5 mb 0.00 in0.0 mm 0.00 in0.0 mm 0.48 in12.2 mm
09:30 PM 41.7°F5.4°C 36.9°F2.7°C 83% 3.3 mph NE5.3 kmh NE 4.5 mph7.2 kmh 29.78 in1008.5 mb 0.00 in0.0 mm 0.00 in0.0 mm 0.48 in12.2 mm
09:35 PM 41.6°F5.3°C 37.1°F2.8°C 84% 2.0 mph NNE3.2 kmh NNE 3.8 mph6.1 kmh 29.78 in1008.5 mb 0.00 in0.0 mm 0.00 in0.0 mm 0.48 in12.2 mm
09:40 PM 41.4°F5.2°C 36.9°F2.7°C 84% 3.1 mph NNE5.0 kmh NNE 4.5 mph7.2 kmh 29.78 in1008.5 mb 0.00 in0.0 mm 0.00 in0.0 mm 0.48 in12.2 mm
09:45 PM 41.2°F5.1°C 36.7°F2.6°C 84% 1.3 mph 2.1 kmh 3.1 mph5.0 kmh 29.78 in1008.5 mb 0.00 in0.0 mm 0.00 in0.0 mm 0.48 in12.2 mm
09:50 PM 41.2°F5.1°C 36.8°F2.7°C 84% 1.7 mph ENE2.7 kmh ENE 3.1 mph5.0 kmh 29.79 in1008.8 mb 0.00 in0.0 mm 0.00 in0.0 mm 0.48 in12.2 mm
09:55 PM 41.1°F5.1°C 36.6°F2.6°C 84% 2.1 mph NE3.4 kmh NE 3.1 mph5.0 kmh 29.79 in1008.8 mb 0.00 in0.0 mm 0.00 in0.0 mm 0.48 in12.2 mm
10:00 PM 41.0°F5.0°C 36.5°F2.5°C 84% 2.4 mph ENE3.9 kmh ENE 3.8 mph6.1 kmh 29.79 in1008.8 mb 0.00 in0.0 mm 0.00 in0.0 mm 0.48 in12.2 mm
10:05 PM 41.0°F5.0°C 36.5°F2.5°C 84% 3.1 mph NE5.0 kmh NE 3.8 mph6.1 kmh 29.79 in1008.8 mb 0.00 in0.0 mm 0.00 in0.0 mm 0.48 in12.2 mm
10:10 PM 41.0°F5.0°C 36.8°F2.7°C 85% 2.5 mph NE4.0 kmh NE 3.8 mph6.1 kmh 29.79 in1008.8 mb 0.00 in0.0 mm 0.00 in0.0 mm 0.48 in12.2 mm
10:15 PM 41.0°F5.0°C 36.8°F2.7°C 85% 1.3 mph NNE2.1 kmh NNE 2.2 mph3.5 kmh 29.79 in1008.8 mb 0.00 in0.0 mm 0.00 in0.0 mm 0.48 in12.2 mm
10:20 PM 40.8°F4.9°C 36.7°F2.6°C 85% 2.0 mph NE3.2 kmh NE 3.1 mph5.0 kmh 29.79 in1008.8 mb 0.00 in0.0 mm 0.00 in0.0 mm 0.48 in12.2 mm
10:25 PM 40.8°F4.9°C 36.6°F2.6°C 85% 2.9 mph NE4.7 kmh NE 3.8 mph6.1 kmh 29.79 in1008.8 mb 0.00 in0.0 mm 0.00 in0.0 mm 0.48 in12.2 mm
10:30 PM 40.6°F4.8°C 36.5°F2.5°C 85% 2.4 mph 3.9 kmh 3.1 mph5.0 kmh 29.79 in1008.8 mb 0.00 in0.0 mm 0.00 in0.0 mm 0.48 in12.2 mm
10:35 PM 40.6°F4.8°C 36.6°F2.6°C 85% 2.2 mph NNE3.5 kmh NNE 3.1 mph5.0 kmh 29.79 in1008.8 mb 0.00 in0.0 mm 0.00 in0.0 mm 0.48 in12.2 mm
10:40 PM 40.6°F4.8°C 36.8°F2.7°C 86% 3.1 mph NE5.0 kmh NE 3.8 mph6.1 kmh 29.79 in1008.8 mb 0.00 in0.0 mm 0.00 in0.0 mm 0.48 in12.2 mm
10:45 PM 40.4°F4.7°C 36.6°F2.6°C 86% 3.4 mph NE5.5 kmh NE 4.5 mph7.2 kmh 29.78 in1008.5 mb 0.00 in0.0 mm 0.00 in0.0 mm 0.48 in12.2 mm
10:50 PM 40.2°F4.6°C 36.4°F2.4°C 86% 1.4 mph N2.3 kmh N 2.2 mph3.5 kmh 29.79 in1008.8 mb 0.00 in0.0 mm 0.00 in0.0 mm 0.48 in12.2 mm
10:55 PM 40.1°F4.5°C 36.3°F2.4°C 86% 0.6 mph N1.0 kmh N 1.6 mph2.6 kmh 29.79 in1008.8 mb 0.00 in0.0 mm 0.00 in0.0 mm 0.48 in12.2 mm
11:00 PM 40.0°F4.4°C 36.2°F2.3°C 86% 1.4 mph NE2.3 kmh NE 3.8 mph6.1 kmh 29.79 in1008.8 mb 0.00 in0.0 mm 0.00 in0.0 mm 0.48 in12.2 mm
11:05 PM 39.9°F4.4°C 36.1°F2.3°C 86% 2.5 mph NE4.0 kmh NE 3.8 mph6.1 kmh 29.79 in1008.8 mb 0.00 in0.0 mm 0.00 in0.0 mm 0.48 in12.2 mm
11:10 PM 40.0°F4.4°C 36.2°F2.3°C 86% 2.7 mph NE4.3 kmh NE 3.8 mph6.1 kmh 29.79 in1008.8 mb 0.00 in0.0 mm 0.00 in0.0 mm 0.48 in12.2 mm
11:15 PM 40.1°F4.5°C 36.3°F2.4°C 86% 3.2 mph NE5.1 kmh NE 4.5 mph7.2 kmh 29.79 in1008.8 mb 0.00 in0.0 mm 0.00 in0.0 mm 0.48 in12.2 mm
11:20 PM 40.3°F4.6°C 36.4°F2.4°C 86% 1.1 mph NNE1.8 kmh NNE 2.2 mph3.5 kmh 29.79 in1008.8 mb 0.00 in0.0 mm 0.00 in0.0 mm 0.48 in12.2 mm
11:25 PM 40.3°F4.6°C 36.5°F2.5°C 86% 0.8 mph N1.3 kmh N 2.2 mph3.5 kmh 29.79 in1008.8 mb 0.00 in0.0 mm 0.00 in0.0 mm 0.48 in12.2 mm
11:30 PM 40.5°F4.7°C 36.6°F2.6°C 86% 2.2 mph NE3.5 kmh NE 3.8 mph6.1 kmh 29.80 in1009.1 mb 0.00 in0.0 mm 0.00 in0.0 mm 0.48 in12.2 mm
11:35 PM 40.6°F4.8°C 37.0°F2.8°C 87% 2.4 mph NE3.9 kmh NE 3.8 mph6.1 kmh 29.80 in1009.1 mb 0.00 in0.0 mm 0.00 in0.0 mm 0.48 in12.2 mm
11:40 PM 40.7°F4.8°C 37.2°F2.9°C 87% 1.6 mph NE2.6 kmh NE 2.2 mph3.5 kmh 29.80 in1009.1 mb 0.00 in0.0 mm 0.00 in0.0 mm 0.48 in12.2 mm
11:45 PM 40.8°F4.9°C 37.3°F2.9°C 87% 2.6 mph NE4.2 kmh NE 4.5 mph7.2 kmh 29.80 in1009.1 mb 0.00 in0.0 mm 0.00 in0.0 mm 0.48 in12.2 mm
11:50 PM 41.0°F5.0°C 37.5°F3.1°C 87% 2.7 mph NE4.3 kmh NE 3.8 mph6.1 kmh 29.80 in1009.1 mb 0.00 in0.0 mm 0.00 in0.0 mm 0.48 in12.2 mm
11:55 PM 41.2°F5.1°C 37.6°F3.1°C 87% 1.2 mph NNW1.9 kmh NNW 1.6 mph2.6 kmh 29.79 in1008.8 mb 0.00 in0.0 mm 0.00 in0.0 mm 0.48 in12.2 mm